Time;durP1;ratioP1;P1;durP2;ratioP2;P2;SDS_P1;SDS_P2;PMS_P1;PMS_P2;Temp;Humidity;BMP_temperature;BMP_pressure;BME280_temperature;BME280_humidity;BME280_pressure;Samples;Min_cycle;Max_cycle;Signal;HPM_P1;HPM_P2
2021/08/23 00:00:08;;;;;;;9.03;7.97;;;17.00;99.90;;;;;;5002565;28;20190;-79
2021/08/23 00:02:34;;;;;;;10.37;8.90;;;16.90;99.90;;;;;;4985689;28;20297;-80
2021/08/23 00:05:00;;;;;;;12.60;9.17;;;16.90;99.90;;;;;;4985965;28;20644;-80
2021/08/23 00:07:25;;;;;;;12.00;9.20;;;16.90;99.90;;;;;;4984969;28;20206;-80
2021/08/23 00:09:51;;;;;;;12.27;8.93;;;16.90;99.90;;;;;;4985419;28;20574;-80
2021/08/23 00:12:17;;;;;;;11.83;9.63;;;16.90;99.90;;;;;;5002227;28;20187;-80
2021/08/23 00:14:42;;;;;;;12.43;8.93;;;16.90;99.90;;;;;;4985853;28;20183;-80
2021/08/23 00:17:08;;;;;;;10.17;9.03;;;16.90;99.90;;;;;;5001703;28;20202;-80
2021/08/23 00:19:33;;;;;;;12.87;9.67;;;16.90;99.90;;;;;;4986002;28;20211;-80
2021/08/23 00:22:11;;;;;;;14.33;9.50;;;16.90;99.90;;;;;;4985868;28;20299;-80
2021/08/23 00:24:37;;;;;;;12.80;10.47;;;16.90;99.90;;;;;;4988627;28;20205;-80
2021/08/23 00:27:02;;;;;;;10.80;9.67;;;16.80;99.90;;;;;;4985282;28;20241;-80
2021/08/23 00:29:28;;;;;;;12.10;10.53;;;16.80;99.90;;;;;;5000899;28;20175;-80
2021/08/23 00:31:54;;;;;;;13.03;10.50;;;16.80;99.90;;;;;;5001232;28;20172;-79
2021/08/23 00:34:19;;;;;;;12.93;10.83;;;16.80;99.90;;;;;;4985192;28;20620;-80
2021/08/23 00:36:45;;;;;;;12.80;10.37;;;16.70;99.90;;;;;;4985654;28;20222;-80
2021/08/23 00:39:11;;;;;;;13.50;10.97;;;16.70;99.90;;;;;;4984893;28;20208;-80
2021/08/23 00:41:37;;;;;;;13.97;10.30;;;16.70;99.90;;;;;;5017511;28;20635;-80
2021/08/23 00:44:04;;;;;;;15.40;11.10;;;16.70;99.90;;;;;;4984437;28;20270;-80
2021/08/23 00:46:29;;;;;;;15.27;11.27;;;16.70;99.90;;;;;;4984791;28;20210;-80
2021/08/23 00:48:55;;;;;;;12.83;11.43;;;16.80;99.90;;;;;;5000066;28;20210;-80
2021/08/23 00:51:20;;;;;;;16.73;12.00;;;16.80;99.90;;;;;;5001076;28;20335;-80
2021/08/23 00:53:47;;;;;;;15.73;11.67;;;16.80;99.90;;;;;;4984759;28;20186;-80
2021/08/23 00:56:14;;;;;;;12.27;10.47;;;16.80;99.90;;;;;;5000853;28;20187;-80
2021/08/23 00:58:39;;;;;;;14.60;12.17;;;16.80;99.90;;;;;;4984504;28;20273;-80
2021/08/23 01:01:15;;;;;;;14.73;11.77;;;16.80;99.90;;;;;;5016520;28;20647;-79
2021/08/23 01:04:02;;;;;;;15.73;11.73;;;16.90;99.90;;;;;;5000841;28;20364;-80
2021/08/23 01:06:28;;;;;;;13.90;11.87;;;16.90;99.90;;;;;;5016802;28;20220;-80
2021/08/23 01:08:54;;;;;;;13.93;11.27;;;16.90;99.90;;;;;;4984299;28;20199;-80
2021/08/23 01:11:19;;;;;;;15.17;12.00;;;16.90;99.90;;;;;;5001105;28;20266;-80
2021/08/23 01:13:46;;;;;;;16.00;12.43;;;16.90;99.90;;;;;;4984682;28;20211;-79
2021/08/23 01:16:12;;;;;;;15.43;12.63;;;16.90;99.90;;;;;;5000813;28;20631;-80
2021/08/23 01:18:38;;;;;;;18.30;12.13;;;16.90;99.90;;;;;;5000348;28;20225;-80
2021/08/23 01:21:04;;;;;;;14.13;12.33;;;16.90;99.90;;;;;;5000871;28;20180;-80
2021/08/23 01:23:34;;;;;;;17.73;12.10;;;16.90;99.90;;;;;;4987712;28;20246;-80
2021/08/23 01:25:59;;;;;;;15.63;12.43;;;16.90;99.90;;;;;;4990716;28;20211;-80
2021/08/23 01:28:28;;;;;;;17.37;12.27;;;16.90;99.90;;;;;;5001169;28;20210;-80
2021/08/23 01:31:14;;;;;;;15.23;12.37;;;16.90;99.90;;;;;;5016471;28;20178;-80
2021/08/23 01:33:43;;;;;;;16.27;12.13;;;16.90;99.90;;;;;;5016844;28;20190;-80
2021/08/23 01:36:09;;;;;;;16.00;12.27;;;16.90;99.90;;;;;;5000589;28;20663;-80
2021/08/23 01:38:35;;;;;;;16.57;12.67;;;16.90;99.90;;;;;;4983516;28;20230;-80
2021/08/23 01:41:07;;;;;;;17.40;13.00;;;16.90;99.90;;;;;;5016130;28;20541;-80
2021/08/23 01:43:33;;;;;;;13.63;12.03;;;16.90;99.90;;;;;;4984628;28;20590;-80
2021/08/23 01:45:59;;;;;;;16.87;12.67;;;16.90;99.90;;;;;;4983717;28;20209;-80
2021/08/23 01:48:24;;;;;;;16.67;12.83;;;16.90;99.90;;;;;;5005495;28;20693;-80
2021/08/23 01:50:50;;;;;;;14.87;12.33;;;16.90;99.90;;;;;;4986126;28;20215;-80
2021/08/23 01:53:16;;;;;;;17.93;12.27;;;16.90;99.90;;;;;;5000837;28;20685;-80
2021/08/23 01:55:47;;;;;;;15.70;12.03;;;16.90;99.90;;;;;;5000775;28;20176;-79
2021/08/23 01:58:14;;;;;;;15.63;12.90;;;16.90;99.90;;;;;;4984886;28;20205;-80
2021/08/23 02:00:40;;;;;;;15.20;12.30;;;16.90;99.90;;;;;;5000666;28;20179;-79
2021/08/23 02:03:05;;;;;;;15.17;12.27;;;16.90;99.90;;;;;;5000611;28;20734;-80
2021/08/23 02:05:31;;;;;;;17.33;12.73;;;16.90;99.90;;;;;;5000402;28;20631;-80
2021/08/23 02:07:56;;;;;;;16.83;12.70;;;16.90;99.90;;;;;;4983346;28;20203;-80
2021/08/23 02:10:22;;;;;;;14.43;12.03;;;16.90;99.90;;;;;;5000709;28;20174;-79
2021/08/23 02:12:48;;;;;;;15.93;11.97;;;16.90;99.90;;;;;;4983303;28;20176;-80
2021/08/23 02:15:13;;;;;;;16.47;13.27;;;16.90;99.90;;;;;;4983361;28;20270;-80
2021/08/23 02:17:39;;;;;;;16.87;12.93;;;17.00;99.90;;;;;;4982756;28;20215;-80
2021/08/23 02:20:06;;;;;;;17.37;13.20;;;17.00;99.90;;;;;;4983279;28;20635;-80
2021/08/23 02:22:32;;;;;;;18.27;14.00;;;17.00;99.90;;;;;;4983624;28;20183;-80
2021/08/23 02:24:57;;;;;;;17.33;12.97;;;17.00;99.90;;;;;;4983504;28;20186;-80
2021/08/23 02:27:23;;;;;;;19.77;14.50;;;17.00;99.90;;;;;;5015905;28;20196;-79
2021/08/23 02:29:48;;;;;;;20.90;13.90;;;17.00;99.90;;;;;;4982413;28;20184;-79
2021/08/23 02:32:14;;;;;;;16.07;12.87;;;17.00;99.90;;;;;;4999407;28;20587;-80
2021/08/23 02:34:39;;;;;;;18.57;13.63;;;17.10;99.90;;;;;;4983031;28;20211;-80
2021/08/23 02:37:05;;;;;;;17.60;13.47;;;17.00;99.90;;;;;;5015692;28;20179;-80
2021/08/23 02:39:31;;;;;;;20.50;13.60;;;17.00;99.90;;;;;;4983101;28;20191;-79
2021/08/23 02:41:56;;;;;;;20.80;14.63;;;17.00;99.90;;;;;;4982063;28;20248;-80
2021/08/23 02:44:22;;;;;;;19.93;14.57;;;17.00;99.90;;;;;;4982806;28;20187;-80
2021/08/23 02:46:48;;;;;;;20.00;14.80;;;17.10;99.90;;;;;;4999725;28;20619;-79
2021/08/23 02:49:13;;;;;;;20.27;15.20;;;17.10;99.90;;;;;;4998858;28;20681;-80
2021/08/23 02:51:39;;;;;;;20.53;14.93;;;17.10;99.90;;;;;;4998617;28;20225;-80
2021/08/23 02:54:04;;;;;;;19.53;14.97;;;17.10;99.90;;;;;;4982938;28;20179;-80
2021/08/23 02:56:30;;;;;;;19.20;15.37;;;17.10;99.90;;;;;;4982731;28;20567;-80
2021/08/23 02:58:55;;;;;;;20.33;14.73;;;17.10;99.90;;;;;;4982918;28;20674;-80
2021/08/23 03:01:21;;;;;;;21.07;14.90;;;17.10;99.90;;;;;;4983445;28;20624;-80
2021/08/23 03:03:47;;;;;;;19.83;13.97;;;17.10;99.90;;;;;;4982733;28;20618;-80
2021/08/23 03:06:12;;;;;;;21.53;15.17;;;17.10;99.90;;;;;;4998832;28;20206;-80
2021/08/23 03:08:39;;;;;;;19.60;14.57;;;17.10;99.90;;;;;;4982006;28;20199;-80
2021/08/23 03:11:12;;;;;;;20.40;14.80;;;17.10;99.90;;;;;;4998902;28;20258;-80
2021/08/23 03:13:38;;;;;;;18.40;14.83;;;17.00;99.90;;;;;;4998760;28;20179;-80
2021/08/23 03:16:04;;;;;;;19.03;14.40;;;17.00;99.90;;;;;;4983289;28;20206;-80
2021/08/23 03:18:30;;;;;;;20.00;14.13;;;17.00;99.90;;;;;;4999130;28;20251;-80
2021/08/23 03:20:55;;;;;;;20.00;14.07;;;17.00;99.90;;;;;;4982620;28;20184;-80
2021/08/23 03:23:21;;;;;;;19.30;13.90;;;17.00;99.90;;;;;;4983246;28;20180;-80
2021/08/23 03:25:46;;;;;;;18.30;13.57;;;17.00;99.90;;;;;;5002791;28;20737;-80
2021/08/23 03:28:12;;;;;;;18.93;13.47;;;16.90;99.90;;;;;;4986379;28;20201;-79
2021/08/23 03:30:37;;;;;;;17.67;13.63;;;16.90;99.90;;;;;;5002954;28;20183;-80
2021/08/23 03:33:03;;;;;;;16.33;12.93;;;16.90;99.90;;;;;;5002830;28;20182;-80
2021/08/23 03:35:29;;;;;;;18.07;14.00;;;16.90;99.90;;;;;;4986531;28;20175;-79
2021/08/23 03:37:54;;;;;;;19.03;13.77;;;17.00;99.90;;;;;;5001920;28;20313;-80
2021/08/23 03:40:20;;;;;;;17.53;13.27;;;16.90;99.90;;;;;;5018292;28;20179;-80
2021/08/23 03:42:45;;;;;;;17.90;14.13;;;17.00;99.90;;;;;;5002078;28;20869;-80
2021/08/23 03:45:11;;;;;;;19.53;13.73;;;17.00;99.90;;;;;;4986517;28;20651;-80
2021/08/23 03:47:36;;;;;;;16.87;13.50;;;17.00;99.90;;;;;;5001782;28;20203;-79
2021/08/23 03:50:03;;;;;;;16.83;12.77;;;17.00;99.90;;;;;;5002002;28;20198;-80
2021/08/23 03:52:28;;;;;;;16.20;13.10;;;17.00;99.90;;;;;;4986831;28;20183;-79
2021/08/23 03:54:54;;;;;;;18.50;13.13;;;17.00;99.90;;;;;;4986544;28;20222;-80
2021/08/23 03:57:19;;;;;;;17.43;13.20;;;17.00;99.90;;;;;;5002083;28;20218;-80
2021/08/23 03:59:45;;;;;;;17.07;12.93;;;17.00;99.90;;;;;;5002064;28;20183;-80
2021/08/23 04:02:10;;;;;;;16.63;13.10;;;17.00;99.90;;;;;;4985755;28;20236;-80
2021/08/23 04:04:36;;;;;;;16.73;12.97;;;17.00;99.90;;;;;;4985730;28;20186;-79
2021/08/23 04:07:01;;;;;;;17.23;13.60;;;17.10;99.90;;;;;;4985192;28;20211;-80
2021/08/23 04:09:27;;;;;;;16.27;13.10;;;17.00;99.90;;;;;;5017759;28;20587;-80
2021/08/23 04:11:53;;;;;;;17.00;13.10;;;17.10;99.90;;;;;;4985568;28;20235;-80
2021/08/23 04:14:18;;;;;;;17.33;12.73;;;17.10;99.90;;;;;;5001995;28;20181;-80
2021/08/23 04:16:44;;;;;;;15.00;12.23;;;17.10;99.90;;;;;;5001631;28;20243;-80
2021/08/23 04:19:09;;;;;;;15.73;12.80;;;17.10;99.90;;;;;;5000860;28;20313;-80
2021/08/23 04:21:35;;;;;;;17.67;13.10;;;17.10;99.90;;;;;;5001772;28;20640;-80
2021/08/23 04:24:00;;;;;;;17.50;13.23;;;17.10;99.90;;;;;;4985282;28;20549;-80
2021/08/23 04:26:26;;;;;;;15.73;13.10;;;17.10;99.90;;;;;;4991861;28;20689;-80
2021/08/23 04:28:51;;;;;;;19.87;13.23;;;17.10;99.90;;;;;;4987233;28;20552;-80
2021/08/23 04:31:17;;;;;;;17.10;13.67;;;17.20;99.90;;;;;;5002975;28;20178;-80
2021/08/23 04:33:45;;;;;;;18.23;13.17;;;17.10;99.90;;;;;;4985549;28;20180;-80
2021/08/23 04:36:11;;;;;;;18.03;13.23;;;17.10;99.90;;;;;;4984453;28;20184;-80
2021/08/23 04:38:37;;;;;;;16.67;13.00;;;17.00;99.90;;;;;;4984956;28;20203;-80
2021/08/23 04:41:02;;;;;;;14.83;11.40;;;17.00;99.90;;;;;;5002521;28;20211;-80
2021/08/23 04:43:28;;;;;;;13.70;11.40;;;16.90;99.90;;;;;;5001385;28;20182;-80
2021/08/23 04:45:53;;;;;;;14.30;12.03;;;16.90;99.90;;;;;;5000473;28;20214;-79
2021/08/23 04:48:19;;;;;;;15.43;12.00;;;16.90;99.90;;;;;;5000609;28;20671;-80
2021/08/23 04:50:44;;;;;;;14.97;11.27;;;16.80;99.90;;;;;;4984037;28;20186;-80
2021/08/23 04:53:10;;;;;;;14.37;11.33;;;16.70;99.90;;;;;;4984711;28;20552;-80
2021/08/23 04:55:35;;;;;;;13.10;10.87;;;16.70;99.90;;;;;;4997059;28;20179;-80
2021/08/23 04:58:01;;;;;;;14.83;10.33;;;16.60;99.90;;;;;;5001172;28;20294;-80
2021/08/23 05:00:27;;;;;;;13.90;10.87;;;16.60;99.90;;;;;;4984989;28;20183;-80
2021/08/23 05:02:52;;;;;;;13.53;11.07;;;16.50;99.90;;;;;;5001840;28;20237;-80
2021/08/23 05:05:18;;;;;;;11.77;10.30;;;16.50;99.90;;;;;;5000069;28;20542;-81
2021/08/23 05:07:43;;;;;;;13.20;10.60;;;16.50;99.90;;;;;;5000051;28;20591;-82
2021/08/23 05:10:09;;;;;;;13.50;11.50;;;16.40;99.90;;;;;;4999757;28;20249;-80
2021/08/23 05:12:35;;;;;;;13.63;11.53;;;16.40;99.90;;;;;;4984386;28;20191;-81
2021/08/23 05:15:00;;;;;;;14.03;11.77;;;16.40;99.90;;;;;;4983257;28;20186;-79
2021/08/23 05:17:26;;;;;;;14.73;11.43;;;16.40;99.90;;;;;;4984837;28;20221;-79
2021/08/23 05:19:52;;;;;;;19.80;12.87;;;16.30;99.90;;;;;;5019193;28;20681;-81
2021/08/23 05:22:17;;;;;;;16.03;12.40;;;16.40;99.90;;;;;;5003948;28;20196;-80
2021/08/23 05:24:43;;;;;;;16.60;12.03;;;16.50;99.90;;;;;;5019786;28;20179;-80
2021/08/23 05:27:09;;;;;;;20.60;13.67;;;16.40;99.90;;;;;;5034938;28;20206;-80
2021/08/23 05:29:34;;;;;;;16.37;13.27;;;16.30;99.90;;;;;;5002355;28;20186;-83
2021/08/23 05:32:00;;;;;;;18.37;13.33;;;16.40;99.90;;;;;;5002189;28;20189;-82
2021/08/23 05:34:25;;;;;;;16.17;13.37;;;16.30;99.90;;;;;;5002767;28;20186;-79
2021/08/23 05:36:51;;;;;;;16.60;13.53;;;16.30;99.90;;;;;;5003186;28;20191;-79
2021/08/23 05:39:17;;;;;;;15.97;13.03;;;16.30;99.90;;;;;;5002720;28;20205;-79
2021/08/23 05:41:42;;;;;;;14.03;12.33;;;16.40;99.90;;;;;;5019364;28;20323;-79
2021/08/23 05:44:08;;;;;;;13.70;11.27;;;16.30;99.90;;;;;;5019276;28;20210;-79
2021/08/23 05:46:33;;;;;;;16.23;12.30;;;16.30;99.90;;;;;;5003573;28;20246;-79
2021/08/23 05:48:59;;;;;;;14.10;12.10;;;16.30;99.90;;;;;;5001913;28;20288;-80
2021/08/23 05:51:24;;;;;;;14.23;11.23;;;16.30;99.90;;;;;;5019183;28;20703;-79
2021/08/23 05:53:50;;;;;;;14.93;12.30;;;16.30;99.90;;;;;;5019347;28;20308;-79
2021/08/23 05:56:16;;;;;;;13.73;12.10;;;16.30;99.90;;;;;;5036275;28;20673;-79
2021/08/23 05:58:41;;;;;;;15.03;12.47;;;16.30;99.90;;;;;;5019124;28;20210;-79
2021/08/23 06:01:07;;;;;;;15.13;11.97;;;16.40;99.90;;;;;;5034620;28;20820;-74
2021/08/23 06:03:32;;;;;;;15.90;12.20;;;16.30;99.90;;;;;;4998227;28;20611;-77
2021/08/23 06:06:04;;;;;;;16.80;12.57;;;16.40;99.90;;;;;;5001488;28;20265;-80
2021/08/23 06:08:30;;;;;;;15.33;13.03;;;16.40;99.90;;;;;;5019769;28;20263;-79
2021/08/23 06:10:55;;;;;;;16.57;13.07;;;16.40;99.90;;;;;;5021726;28;20185;-78
2021/08/23 06:13:21;;;;;;;16.57;12.77;;;16.50;99.90;;;;;;5019118;28;20181;-79
2021/08/23 06:15:46;;;;;;;17.43;13.50;;;16.50;99.90;;;;;;5005231;28;20250;-78
2021/08/23 06:18:12;;;;;;;15.10;13.50;;;16.50;99.90;;;;;;5038117;28;20226;-78
2021/08/23 06:20:37;;;;;;;16.47;13.63;;;16.50;99.90;;;;;;5018199;28;20209;-79
2021/08/23 06:23:03;;;;;;;16.07;13.87;;;16.60;99.90;;;;;;5034255;28;20178;-79
2021/08/23 06:25:28;;;;;;;18.33;14.37;;;16.60;99.90;;;;;;5018154;28;20225;-79
2021/08/23 06:27:54;;;;;;;19.70;14.47;;;16.60;99.90;;;;;;5034537;28;20205;-81
2021/08/23 06:30:19;;;;;;;18.33;14.27;;;16.70;99.90;;;;;;4995568;28;20186;-80
2021/08/23 06:32:45;;;;;;;18.20;15.07;;;16.80;99.90;;;;;;4992160;28;20199;-79
2021/08/23 06:35:11;;;;;;;18.23;14.27;;;16.80;99.90;;;;;;5013558;28;20244;-76
2021/08/23 06:37:38;;;;;;;19.80;14.53;;;17.00;99.90;;;;;;5032203;28;20217;-77
2021/08/23 06:40:08;;;;;;;16.27;14.47;;;17.10;99.90;;;;;;5014709;28;20178;-77
2021/08/23 06:42:34;;;;;;;19.37;14.00;;;17.20;99.90;;;;;;4999746;28;20195;-79
2021/08/23 06:45:01;;;;;;;17.43;13.80;;;17.30;99.90;;;;;;4999764;28;20217;-80
2021/08/23 06:47:26;;;;;;;16.53;13.80;;;17.30;99.90;;;;;;5017347;28;20682;-79
2021/08/23 06:49:52;;;;;;;15.40;13.30;;;17.20;99.90;;;;;;5014900;28;20174;-77
2021/08/23 06:52:17;;;;;;;17.63;14.63;;;17.20;99.90;;;;;;5013788;28;20434;-77
2021/08/23 06:54:43;;;;;;;17.30;13.90;;;17.10;99.90;;;;;;5013974;28;20210;-75
2021/08/23 06:57:08;;;;;;;17.97;14.40;;;17.10;99.90;;;;;;5013965;28;20654;-76
2021/08/23 06:59:34;;;;;;;17.47;13.93;;;17.10;99.90;;;;;;5016513;28;20639;-76
2021/08/23 07:01:59;;;;;;;17.87;15.40;;;17.10;99.90;;;;;;5034576;28;20182;-75
2021/08/23 07:04:25;;;;;;;17.23;14.37;;;17.10;99.90;;;;;;5018808;28;20719;-79
2021/08/23 07:06:51;;;;;;;20.57;15.53;;;17.10;99.90;;;;;;5034917;28;20217;-76
2021/08/23 07:09:16;;;;;;;20.60;15.83;;;17.00;99.90;;;;;;5035299;28;20274;-77
2021/08/23 07:11:42;;;;;;;19.07;15.33;;;17.00;99.90;;;;;;5017487;28;20528;-75
2021/08/23 07:14:07;;;;;;;20.30;14.87;;;17.00;99.90;;;;;;5036187;28;20681;-76
2021/08/23 07:16:33;;;;;;;20.27;14.50;;;17.00;99.90;;;;;;5028344;28;20685;-77
2021/08/23 07:18:58;;;;;;;20.63;15.77;;;17.00;99.90;;;;;;5015437;28;20332;-77
2021/08/23 07:21:24;;;;;;;20.27;14.93;;;17.10;99.90;;;;;;5015709;28;20187;-77
2021/08/23 07:23:49;;;;;;;18.10;14.67;;;17.20;99.90;;;;;;4997827;28;20514;-77
2021/08/23 07:26:15;;;;;;;17.17;13.63;;;17.30;99.90;;;;;;5014246;28;20210;-77
2021/08/23 07:28:40;;;;;;;33.27;24.47;;;17.30;99.90;;;;;;5014071;28;20210;-77
2021/08/23 07:31:06;;;;;;;18.67;15.10;;;17.50;99.90;;;;;;5032754;28;20210;-77
2021/08/23 07:33:32;;;;;;;18.37;14.17;;;17.60;99.90;;;;;;5002026;28;20535;-77
2021/08/23 07:35:57;;;;;;;17.23;13.90;;;17.80;99.90;;;;;;4994407;28;20190;-77
2021/08/23 07:38:24;;;;;;;15.33;12.73;;;17.80;99.90;;;;;;4994118;28;20735;-77
2021/08/23 07:40:49;;;;;;;16.70;12.97;;;17.80;99.90;;;;;;4987325;28;20193;-78
2021/08/23 07:43:15;;;;;;;15.37;12.43;;;17.90;99.90;;;;;;5009352;28;20186;-77
2021/08/23 07:45:41;;;;;;;15.63;12.33;;;17.90;99.90;;;;;;5015487;28;20682;-77
2021/08/23 07:48:06;;;;;;;14.07;12.43;;;17.90;99.90;;;;;;5009289;28;20191;-77
2021/08/23 07:50:32;;;;;;;14.47;12.73;;;17.90;99.90;;;;;;5005299;28;20654;-77
2021/08/23 07:52:58;;;;;;;16.47;12.80;;;17.90;99.90;;;;;;5007348;28;20170;-77
2021/08/23 07:55:23;;;;;;;18.73;12.93;;;18.10;99.90;;;;;;5022744;28;20261;-77
2021/08/23 07:57:49;;;;;;;14.93;11.97;;;18.40;99.90;;;;;;4989608;28;20195;-77
2021/08/23 08:00:17;;;;;;;17.20;12.50;;;18.70;99.90;;;;;;5007304;28;21283;-77
2021/08/23 08:02:42;;;;;;;13.57;11.83;;;18.90;99.90;;;;;;5023334;28;20177;-77
2021/08/23 08:05:08;;;;;;;14.03;11.90;;;19.20;99.90;;;;;;5022565;28;20172;-77
2021/08/23 08:07:34;;;;;;;13.67;11.73;;;19.30;99.90;;;;;;5006212;28;20667;-77
2021/08/23 08:10:00;;;;;;;14.83;12.37;;;19.40;99.90;;;;;;4983302;28;20186;-77
2021/08/23 08:12:25;;;;;;;13.57;12.13;;;19.60;99.90;;;;;;5030332;28;20185;-77
2021/08/23 08:14:54;;;;;;;13.23;11.80;;;19.60;99.90;;;;;;5010138;28;20203;-77
2021/08/23 08:17:20;;;;;;;14.87;11.37;;;19.60;99.90;;;;;;5021189;28;20521;-77
2021/08/23 08:19:45;;;;;;;14.20;12.10;;;19.80;99.90;;;;;;5030962;28;20570;-77
2021/08/23 08:22:13;;;;;;;17.60;12.77;;;20.00;99.90;;;;;;5016069;28;20187;-77
2021/08/23 08:24:38;;;;;;;12.73;11.10;;;19.90;99.90;;;;;;5016076;28;20202;-77
2021/08/23 08:27:04;;;;;;;14.07;10.87;;;19.70;99.90;;;;;;4996900;28;20670;-77
2021/08/23 08:29:29;;;;;;;15.30;11.20;;;19.50;99.90;;;;;;4988412;28;20337;-77
2021/08/23 08:31:55;;;;;;;14.53;10.97;;;19.30;99.90;;;;;;5015852;28;20715;-77
2021/08/23 08:34:21;;;;;;;12.77;11.00;;;19.20;99.90;;;;;;5010457;28;20551;-77
2021/08/23 08:36:46;;;;;;;15.10;11.43;;;19.10;99.90;;;;;;4980794;28;20529;-77
2021/08/23 08:39:12;;;;;;;14.73;11.83;;;19.20;99.90;;;;;;5013488;28;20210;-78
2021/08/23 08:41:37;;;;;;;13.77;11.47;;;19.10;99.90;;;;;;5007790;28;20237;-77
2021/08/23 08:44:03;;;;;;;15.10;11.80;;;19.00;99.90;;;;;;5017338;28;20179;-77
2021/08/23 08:46:29;;;;;;;16.97;12.20;;;18.90;99.90;;;;;;4998066;28;20199;-78
2021/08/23 08:48:54;;;;;;;12.07;10.73;;;18.90;99.90;;;;;;5016060;28;20585;-77
2021/08/23 08:51:20;;;;;;;16.17;11.40;;;18.90;99.90;;;;;;5016335;28;20210;-77
2021/08/23 08:53:45;;;;;;;15.50;11.73;;;19.10;99.90;;;;;;5014935;28;20178;-77
2021/08/23 08:56:11;;;;;;;15.53;11.83;;;19.10;99.90;;;;;;5031620;28;20207;-77
2021/08/23 08:58:36;;;;;;;14.27;11.07;;;19.10;99.90;;;;;;5015530;28;20697;-78
2021/08/23 09:01:04;;;;;;;14.20;11.67;;;19.10;99.90;;;;;;5015663;28;20646;-77
2021/08/23 09:03:30;;;;;;;13.87;10.70;;;19.00;99.90;;;;;;5032386;28;20265;-77
2021/08/23 09:06:06;;;;;;;13.27;11.00;;;18.90;99.90;;;;;;5032472;28;20279;-77
2021/08/23 09:08:32;;;;;;;14.60;11.73;;;19.00;99.90;;;;;;5015861;28;20201;-77
2021/08/23 09:11:20;;;;;;;12.57;10.40;;;19.10;99.90;;;;;;5015281;28;20175;-77
2021/08/23 09:14:03;;;;;;;12.77;10.80;;;19.30;99.90;;;;;;5031903;28;20169;-78
2021/08/23 09:16:34;;;;;;;13.23;11.07;;;19.50;99.90;;;;;;5015836;28;20183;-77
2021/08/23 09:19:00;;;;;;;12.13;9.97;;;19.40;99.90;;;;;;5016214;28;20210;-77
2021/08/23 09:21:29;;;;;;;13.63;9.63;;;19.40;99.90;;;;;;5031904;28;20182;-75
2021/08/23 09:23:57;;;;;;;13.93;10.43;;;19.40;99.90;;;;;;5027279;28;20182;-76
2021/08/23 09:26:23;;;;;;;11.40;9.57;;;19.50;99.90;;;;;;4996592;28;20238;-76
2021/08/23 09:29:04;;;;;;;13.37;10.07;;;19.50;99.90;;;;;;5010289;28;20191;-76
2021/08/23 09:31:35;;;;;;;10.40;9.07;;;19.50;99.90;;;;;;4995390;28;20597;-76
2021/08/23 09:34:02;;;;;;;9.50;8.50;;;19.50;99.90;;;;;;4995434;28;20635;-76
2021/08/23 09:36:28;;;;;;;12.17;9.27;;;19.50;99.90;;;;;;4995436;28;20179;-76
2021/08/23 09:39:04;;;;;;;10.03;8.77;;;19.40;99.90;;;;;;5011665;28;20230;-76
2021/08/23 09:41:30;;;;;;;11.53;9.07;;;19.40;99.90;;;;;;5012828;28;20230;-76
2021/08/23 09:44:04;;;;;;;10.70;8.77;;;19.40;99.90;;;;;;5012251;28;20655;-76
2021/08/23 09:46:32;;;;;;;10.97;9.10;;;19.40;99.90;;;;;;4995502;28;20642;-76
2021/08/23 09:49:08;;;;;;;10.57;8.83;;;19.40;99.90;;;;;;5011476;28;20609;-76
2021/08/23 09:51:41;;;;;;;9.67;7.93;;;19.50;99.90;;;;;;4995331;28;20175;-76
2021/08/23 09:54:29;;;;;;;9.87;8.20;;;19.70;99.90;;;;;;5011565;28;20647;-74
2021/08/23 09:56:54;;;;;;;8.83;7.80;;;20.00;99.90;;;;;;5011860;28;20172;-77
2021/08/23 09:59:27;;;;;;;9.00;7.97;;;20.00;99.90;;;;;;5011245;28;20279;-77
2021/08/23 10:01:55;;;;;;;8.90;7.73;;;20.20;99.90;;;;;;5011665;28;20627;-77
2021/08/23 10:04:20;;;;;;;10.87;8.40;;;20.30;99.90;;;;;;5011531;28;20176;-77
2021/08/23 10:06:47;;;;;;;9.37;7.70;;;20.30;99.90;;;;;;5011498;28;20274;-77
2021/08/23 10:09:17;;;;;;;11.60;8.60;;;20.10;99.90;;;;;;4998465;28;20238;-77
2021/08/23 10:11:42;;;;;;;10.20;8.23;;;19.90;99.90;;;;;;5006266;28;20511;-77
2021/08/23 10:14:08;;;;;;;9.23;8.07;;;19.80;99.90;;;;;;5011705;28;20206;-78
2021/08/23 10:16:35;;;;;;;10.27;9.17;;;19.70;99.90;;;;;;5024647;28;20550;-77
2021/08/23 10:19:01;;;;;;;9.27;8.33;;;19.60;99.90;;;;;;5018725;28;20239;-78
2021/08/23 10:21:27;;;;;;;9.37;8.27;;;19.60;99.90;;;;;;5035993;28;20249;-78
2021/08/23 10:23:53;;;;;;;10.43;8.77;;;19.50;99.90;;;;;;5019834;28;20186;-79
2021/08/23 10:26:18;;;;;;;10.83;8.33;;;19.50;99.90;;;;;;5019621;28;20237;-79
2021/08/23 10:28:48;;;;;;;10.60;8.90;;;19.50;99.90;;;;;;5025632;28;20206;-79
2021/08/23 10:31:15;;;;;;;10.30;8.40;;;19.60;99.90;;;;;;5022254;28;20682;-78
2021/08/23 10:33:44;;;;;;;9.33;8.37;;;19.60;99.90;;;;;;5010237;28;20174;-78
2021/08/23 10:36:13;;;;;;;13.80;8.93;;;19.60;99.90;;;;;;5040551;28;20551;-77
2021/08/23 10:38:39;;;;;;;10.43;8.50;;;19.60;99.90;;;;;;5039952;28;20568;-79
2021/08/23 10:41:08;;;;;;;9.43;8.43;;;19.60;99.90;;;;;;5030359;28;20187;-79
2021/08/23 10:43:47;;;;;;;13.20;8.40;;;19.60;99.90;;;;;;5041834;28;20175;-79
2021/08/23 10:46:25;;;;;;;10.97;8.03;;;19.60;99.90;;;;;;5030019;28;20289;-79
2021/08/23 10:48:51;;;;;;;12.23;8.17;;;19.60;99.90;;;;;;5020223;28;20199;-78
2021/08/23 10:51:39;;;;;;;9.23;8.20;;;19.70;99.90;;;;;;4988274;28;20186;-78
2021/08/23 10:54:27;;;;;;;11.37;9.20;;;19.80;99.90;;;;;;5025753;28;20183;-79
2021/08/23 10:57:13;;;;;;;10.30;8.43;;;19.80;99.90;;;;;;5029351;28;20280;-78
2021/08/23 10:59:44;;;;;;;9.17;8.17;;;19.90;99.90;;;;;;5010447;28;20187;-79
2021/08/23 11:02:26;;;;;;;9.70;8.47;;;20.00;99.90;;;;;;5026094;28;20179;-79
2021/08/23 11:05:06;;;;;;;9.57;8.27;;;20.10;99.90;;;;;;5031490;28;20194;-79
2021/08/23 11:07:32;;;;;;;10.93;8.57;;;20.10;99.90;;;;;;5017259;28;20222;-79
2021/08/23 11:10:12;;;;;;;10.00;9.00;;;20.00;99.90;;;;;;5026084;28;20244;-79
2021/08/23 11:12:45;;;;;;;9.30;7.90;;;20.00;99.90;;;;;;5033284;28;20179;-79
2021/08/23 11:15:16;;;;;;;8.73;7.83;;;19.90;99.90;;;;;;5009141;28;20179;-78
2021/08/23 11:18:06;;;;;;;8.20;7.33;;;19.90;99.90;;;;;;5020827;28;20207;-79
2021/08/23 11:20:33;;;;;;;9.13;6.60;;;20.10;99.90;;;;;;5025292;28;20561;-79
2021/08/23 11:23:25;;;;;;;7.57;6.13;;;20.50;99.90;;;;;;5006869;28;20251;-79
2021/08/23 11:25:51;;;;;;;10.63;7.23;;;20.90;99.90;;;;;;5003941;28;20905;-80
2021/08/23 11:28:19;;;;;;;9.70;7.10;;;21.00;99.90;;;;;;5011652;28;20264;-78
2021/08/23 11:30:46;;;;;;;6.70;6.10;;;21.00;99.90;;;;;;5010355;28;20239;-79
2021/08/23 11:33:13;;;;;;;6.50;5.80;;;21.00;99.90;;;;;;5030542;28;20174;-77
2021/08/23 11:35:39;;;;;;;9.63;6.33;;;20.90;99.90;;;;;;5026166;28;20184;-78
2021/08/23 11:38:06;;;;;;;9.50;6.30;;;20.80;99.90;;;;;;5018871;28;20199;-77
2021/08/23 11:40:33;;;;;;;7.40;5.63;;;20.80;99.90;;;;;;5002447;28;20317;-78
2021/08/23 11:43:00;;;;;;;6.83;5.93;;;20.90;99.90;;;;;;5018956;28;20183;-78
2021/08/23 11:45:27;;;;;;;6.67;5.97;;;21.00;99.90;;;;;;5018417;28;20176;-76
2021/08/23 11:47:53;;;;;;;5.60;5.10;;;21.10;99.90;;;;;;5017797;28;20777;-80
2021/08/23 11:50:19;;;;;;;6.20;5.23;;;21.00;99.90;;;;;;5019526;28;20171;-78
2021/08/23 11:52:46;;;;;;;7.53;4.77;;;21.10;99.90;;;;;;5019396;28;20172;-78
2021/08/23 11:55:12;;;;;;;6.27;4.60;;;21.30;99.90;;;;;;5023333;28;20175;-78
2021/08/23 11:57:37;;;;;;;5.30;4.80;;;21.30;99.90;;;;;;5023128;28;20835;-78
2021/08/23 12:00:04;;;;;;;5.60;4.23;;;21.30;99.90;;;;;;5018866;28;20186;-82
2021/08/23 12:02:36;;;;;;;5.43;3.97;;;21.30;99.90;;;;;;5013314;28;20202;-78
2021/08/23 12:05:12;;;;;;;6.57;4.03;;;21.50;99.90;;;;;;5038830;28;20250;-79
2021/08/23 12:07:48;;;;;;;5.40;3.03;;;21.70;99.90;;;;;;5038486;28;20207;-78
2021/08/23 12:10:31;;;;;;;3.17;2.63;;;21.80;99.90;;;;;;5021634;28;20177;-79
2021/08/23 12:13:15;;;;;;;3.63;3.10;;;21.80;99.90;;;;;;5023203;28;20184;-78
2021/08/23 12:15:53;;;;;;;4.57;3.33;;;21.80;99.90;;;;;;5040918;28;20171;-78
2021/08/23 12:18:28;;;;;;;3.80;2.70;;;21.90;99.90;;;;;;5040908;28;20244;-77
2021/08/23 12:21:09;;;;;;;5.37;3.40;;;22.00;99.90;;;;;;5035491;28;20168;-76
2021/08/23 12:23:59;;;;;;;3.27;2.80;;;22.30;99.90;;;;;;5035252;28;20171;-76
2021/08/23 12:26:25;;;;;;;4.67;2.30;;;22.50;99.90;;;;;;5049674;28;20568;-76
2021/08/23 12:28:55;;;;;;;5.77;2.63;;;22.30;99.90;;;;;;5024528;28;20697;-75
2021/08/23 12:31:21;;;;;;;4.33;2.47;;;22.00;99.90;;;;;;4996220;28;20180;-75